Time;durP1;ratioP1;P1;durP2;ratioP2;P2;SDS_P1;SDS_P2;PMS_P1;PMS_P2;Temp;Humidity;BMP_temperature;BMP_pressure;BME280_temperature;BME280_humidity;BME280_pressure;Samples;Min_cycle;Max_cycle;Signal;HPM_P1;HPM_P2
2023/04/11 00:00:45;;;;;;;47.05;6.82;;;;;;;-139.84;100.00;61778.28;5044302;28;20487;-74
2023/04/11 00:03:11;;;;;;;56.78;8.65;;;;;;;-139.84;100.00;61778.28;5045404;28;20029;-74
2023/04/11 00:05:36;;;;;;;55.73;7.23;;;;;;;-139.84;100.00;61778.28;5046331;28;20041;-74
2023/04/11 00:08:02;;;;;;;63.15;10.25;;;;;;;-139.84;100.00;61778.28;5018108;28;20492;-73
2023/04/11 00:10:28;;;;;;;58.07;8.83;;;;;;;-139.84;100.00;61778.28;5043465;28;20237;-74
2023/04/11 00:12:55;;;;;;;47.17;7.82;;;;;;;-139.84;100.00;61778.28;5046738;28;20036;-73
2023/04/11 00:15:22;;;;;;;68.20;10.45;;;;;;;-139.84;100.00;61778.28;5042995;28;20400;-74
2023/04/11 00:17:48;;;;;;;56.30;7.63;;;;;;;-139.84;100.00;61778.28;5033439;28;20064;-75
2023/04/11 00:20:14;;;;;;;55.47;8.88;;;;;;;-139.84;100.00;61778.28;5047813;28;20079;-74
2023/04/11 00:22:40;;;;;;;51.50;7.60;;;;;;;-139.84;100.00;61778.28;5043919;28;20029;-74
2023/04/11 00:25:06;;;;;;;46.28;6.85;;;;;;;-139.84;100.00;61778.28;5036563;28;20029;-73
2023/04/11 00:27:32;;;;;;;47.97;6.80;;;;;;;-139.84;100.00;61778.28;5043942;28;20043;-74
2023/04/11 00:29:57;;;;;;;37.40;6.43;;;;;;;-139.84;100.00;61778.28;5045338;28;20029;-76
2023/04/11 00:32:26;;;;;;;49.88;7.28;;;;;;;-139.84;100.00;61778.28;5048205;28;20044;-74
2023/04/11 00:34:51;;;;;;;47.85;6.60;;;;;;;-139.84;100.00;61778.28;5045952;28;20044;-74
2023/04/11 00:37:21;;;;;;;47.75;5.07;;;;;;;-139.84;100.00;61778.28;5024104;28;20025;-74
2023/04/11 00:39:51;;;;;;;44.33;5.50;;;;;;;-139.84;100.00;61778.28;5047742;28;20107;-74
2023/04/11 00:42:18;;;;;;;38.85;5.85;;;;;;;-139.84;100.00;61778.28;5029860;28;20048;-74
2023/04/11 00:44:44;;;;;;;46.47;6.38;;;;;;;-139.84;100.00;61778.28;5043099;28;20039;-74
2023/04/11 00:47:10;;;;;;;42.65;6.50;;;;;;;-139.84;100.00;61778.28;5031602;28;20116;-73
2023/04/11 00:49:36;;;;;;;58.20;6.35;;;;;;;-139.84;100.00;61778.28;5046432;28;20025;-74
2023/04/11 00:52:02;;;;;;;32.05;5.15;;;;;;;-139.84;100.00;61778.28;5032214;28;20092;-73
2023/04/11 00:54:29;;;;;;;44.45;6.45;;;;;;;-139.84;100.00;61778.28;5025590;28;20075;-73
2023/04/11 00:56:59;;;;;;;;;;;;;;;-139.84;100.00;61778.28;5045140;28;20044;-73
2023/04/11 00:59:27;;;;;;;36.15;7.13;;;;;;;-139.84;100.00;61778.28;5037899;28;20408;-73
2023/04/11 01:01:53;;;;;;;33.53;4.85;;;;;;;-139.84;100.00;61778.28;5044062;28;20460;-73
2023/04/11 01:04:20;;;;;;;42.90;5.73;;;;;;;-139.84;100.00;61778.28;5028436;28;20417;-73
2023/04/11 01:06:51;;;;;;;29.85;4.80;;;;;;;-139.84;100.00;61778.28;5041872;28;20030;-74
2023/04/11 01:09:23;;;;;;;37.35;5.00;;;;;;;-139.84;100.00;61778.28;5046505;28;20028;-75
2023/04/11 01:11:49;;;;;;;26.00;5.38;;;;;;;-139.84;100.00;61778.28;5043623;28;20090;-74
2023/04/11 01:14:17;;;;;;;39.73;5.10;;;;;;;-139.84;100.00;61778.28;5042052;28;20037;-74
2023/04/11 01:16:45;;;;;;;39.10;5.75;;;;;;;-139.84;100.00;61778.28;5042745;28;20280;-74
2023/04/11 01:19:17;;;;;;;23.10;3.70;;;;;;;-139.84;100.00;61778.28;5042527;28;20045;-73
2023/04/11 01:21:43;;;;;;;27.15;4.90;;;;;;;-139.84;100.00;61778.28;5043257;28;20026;-75
2023/04/11 01:24:08;;;;;;;36.72;5.07;;;;;;;-139.84;100.00;61778.28;5045599;28;20037;-74
2023/04/11 01:26:35;;;;;;;26.40;4.38;;;;;;;-139.84;100.00;61778.28;5046065;28;20020;-75
2023/04/11 01:29:01;;;;;;;29.95;4.15;;;;;;;-139.84;100.00;61778.28;5046503;28;20586;-74
2023/04/11 01:31:26;;;;;;;26.55;4.63;;;;;;;-139.84;100.00;61778.28;5042104;28;20158;-73
2023/04/11 01:33:52;;;;;;;26.45;5.63;;;;;;;-139.84;100.00;61778.28;5043372;28;20025;-73
2023/04/11 01:36:17;;;;;;;27.92;5.00;;;;;;;-139.84;100.00;61778.28;5045676;28;20293;-74
2023/04/11 01:38:44;;;;;;;28.93;4.17;;;;;;;-139.84;100.00;61778.28;5042859;28;20029;-74
2023/04/11 01:41:10;;;;;;;23.50;3.85;;;;;;;-139.84;100.00;61778.28;5030980;28;20476;-74
2023/04/11 01:43:35;;;;;;;38.10;4.50;;;;;;;-139.84;100.00;61778.28;5026848;28;20029;-73
2023/04/11 01:46:01;;;;;;;31.33;6.03;;;;;;;-139.84;100.00;61778.28;5044106;28;20045;-74
2023/04/11 01:48:28;;;;;;;35.42;4.10;;;;;;;-139.84;100.00;61778.28;5041911;28;20044;-74
2023/04/11 01:50:55;;;;;;;31.05;6.03;;;;;;;-139.84;100.00;61778.28;5046802;28;20049;-74
2023/04/11 01:53:21;;;;;;;31.45;5.07;;;;;;;-139.84;100.00;61778.28;5040453;28;20026;-74
2023/04/11 01:55:46;;;;;;;37.83;4.18;;;;;;;-139.84;100.00;61778.28;5040712;28;20780;-74
2023/04/11 01:58:12;;;;;;;40.00;4.70;;;;;;;-139.84;100.00;61778.28;5044452;28;20108;-74
2023/04/11 02:00:37;;;;;;;24.53;4.60;;;;;;;-139.84;100.00;61778.28;5043657;28;20128;-74
2023/04/11 02:03:03;;;;;;;28.65;4.13;;;;;;;-139.84;100.00;61778.28;5044864;28;20036;-74
2023/04/11 02:05:29;;;;;;;30.83;5.07;;;;;;;-139.84;100.00;61778.28;5023265;28;20571;-74
2023/04/11 02:07:54;;;;;;;26.10;3.15;;;;;;;-139.84;100.00;61778.28;5023384;28;20037;-74
2023/04/11 02:10:20;;;;;;;21.02;3.88;;;;;;;-139.84;100.00;61778.28;5022834;28;20079;-75
2023/04/11 02:12:45;;;;;;;23.60;3.92;;;;;;;-139.84;100.00;61778.28;5021301;28;20032;-74
2023/04/11 02:15:10;;;;;;;30.30;3.72;;;;;;;-139.84;100.00;61778.28;5020087;28;20060;-74
2023/04/11 02:17:36;;;;;;;24.35;3.42;;;;;;;-139.84;100.00;61778.28;5023514;28;20535;-73
2023/04/11 02:20:05;;;;;;;16.45;2.35;;;;;;;-139.84;100.00;61778.28;5023334;28;20033;-73
2023/04/11 02:22:31;;;;;;;24.23;3.38;;;;;;;-139.84;100.00;61778.28;5022514;28;20350;-74
2023/04/11 02:24:56;;;;;;;21.77;3.80;;;;;;;-139.84;100.00;61778.28;5022989;28;20037;-74
2023/04/11 02:27:21;;;;;;;23.47;3.30;;;;;;;-139.84;100.00;61778.28;5023377;28;20347;-74
2023/04/11 02:29:47;;;;;;;18.10;2.90;;;;;;;-139.84;100.00;61778.28;5025286;28;20512;-76
2023/04/11 02:32:12;;;;;;;7.65;2.30;;;;;;;-139.84;100.00;61778.28;5020255;28;20108;-75
2023/04/11 02:34:38;;;;;;;21.27;2.60;;;;;;;-139.84;100.00;61778.28;5042229;28;20033;-75
2023/04/11 02:37:03;;;;;;;19.58;2.70;;;;;;;-139.84;100.00;61778.28;5036820;28;20029;-74
2023/04/11 02:39:29;;;;;;;18.70;2.70;;;;;;;-139.84;100.00;61778.28;5036901;28;20124;-73
2023/04/11 02:41:56;;;;;;;19.77;2.75;;;;;;;-139.84;100.00;61778.28;5020450;28;20556;-73
2023/04/11 02:44:21;;;;;;;;;;;;;;;-139.84;100.00;61778.28;5021230;28;20090;-73
2023/04/11 02:46:46;;;;;;;23.52;2.70;;;;;;;-139.84;100.00;61778.28;5022465;28;19913;-73
2023/04/11 02:49:12;;;;;;;28.98;4.00;;;;;;;-139.84;100.00;61778.28;5027139;28;20082;-72
2023/04/11 02:51:40;;;;;;;25.02;4.57;;;;;;;-139.84;100.00;61778.28;5024300;28;20489;-70
2023/04/11 02:54:06;;;;;;;20.70;3.03;;;;;;;-139.84;100.00;61778.28;5030431;28;20033;-74
2023/04/11 02:56:33;;;;;;;18.52;2.85;;;;;;;-139.84;100.00;61778.28;5031992;28;20466;-74
2023/04/11 02:58:59;;;;;;;24.40;2.88;;;;;;;-139.84;100.00;61778.28;5024178;28;20022;-74
2023/04/11 03:01:25;;;;;;;9.38;2.00;;;;;;;-139.84;100.00;61778.28;5029973;28;20032;-74
2023/04/11 03:03:50;;;;;;;11.48;2.28;;;;;;;-139.84;100.00;61778.28;5029005;28;20038;-74
2023/04/11 03:06:16;;;;;;;18.15;3.03;;;;;;;-139.84;100.00;61778.28;5028530;28;20044;-74
2023/04/11 03:08:41;;;;;;;25.13;3.72;;;;;;;-139.84;100.00;61778.28;5036438;28;20452;-74
2023/04/11 03:11:06;;;;;;;16.83;2.45;;;;;;;-139.84;100.00;61778.28;5045842;28;20409;-75
2023/04/11 03:13:32;;;;;;;28.17;2.80;;;;;;;-139.84;100.00;61778.28;5048893;28;20032;-74
2023/04/11 03:15:58;;;;;;;21.73;3.00;;;;;;;-139.84;100.00;61778.28;5046682;28;20531;-74
2023/04/11 03:18:23;;;;;;;30.05;3.40;;;;;;;-139.84;100.00;61778.28;5035748;28;20036;-74
2023/04/11 03:20:50;;;;;;;18.58;3.05;;;;;;;-139.84;100.00;61778.28;5048975;28;20070;-74
2023/04/11 03:23:15;;;;;;;;;;;;;;;-139.84;100.00;61778.28;5026855;28;20036;-74
2023/04/11 03:25:43;;;;;;;21.63;3.17;;;;;;;-139.84;100.00;61778.28;5033420;28;19909;-74
2023/04/11 03:28:09;;;;;;;21.02;2.58;;;;;;;-139.84;100.00;61778.28;5045551;28;20510;-74
2023/04/11 03:30:39;;;;;;;17.80;3.60;;;;;;;-139.84;100.00;61778.28;5033789;28;20153;-74
2023/04/11 03:33:05;;;;;;;20.25;3.45;;;;;;;-139.84;100.00;61778.28;5043539;28;20371;-73
2023/04/11 03:35:30;;;;;;;29.57;3.33;;;;;;;-139.84;100.00;61778.28;5042960;28;20492;-73
2023/04/11 03:37:57;;;;;;;19.60;2.60;;;;;;;-139.84;100.00;61778.28;5045584;28;20270;-74
2023/04/11 03:40:23;;;;;;;15.48;2.50;;;;;;;-139.84;100.00;61778.28;5045752;28;20044;-74
2023/04/11 03:42:48;;;;;;;24.95;2.72;;;;;;;-139.84;100.00;61778.28;5030417;28;20392;-74
2023/04/11 03:45:14;;;;;;;31.10;2.83;;;;;;;-139.84;100.00;61778.28;5046508;28;20025;-74
2023/04/11 03:47:40;;;;;;;17.45;2.72;;;;;;;-139.84;100.00;61778.28;5046820;28;20036;-73
2023/04/11 03:50:06;;;;;;;18.97;2.97;;;;;;;-139.84;100.00;61778.28;5046997;28;20543;-74
2023/04/11 03:52:32;;;;;;;25.25;2.90;;;;;;;-139.84;100.00;61778.28;5026826;28;20028;-74
2023/04/11 03:54:58;;;;;;;22.83;3.13;;;;;;;-139.84;100.00;61778.28;5049743;28;20040;-74
2023/04/11 03:57:25;;;;;;;13.57;3.20;;;;;;;-139.84;100.00;61778.28;5045144;28;20456;-73
2023/04/11 03:59:52;;;;;;;15.77;2.65;;;;;;;-139.84;100.00;61778.28;5044232;28;20029;-73
2023/04/11 04:02:17;;;;;;;15.15;2.70;;;;;;;-139.84;100.00;61778.28;5026456;28;20088;-74
2023/04/11 04:04:49;;;;;;;19.23;2.63;;;;;;;-139.84;100.00;61778.28;5047087;28;20037;-74
2023/04/11 04:07:16;;;;;;;19.15;2.72;;;;;;;-139.84;100.00;61778.28;5044447;28;20029;-75
2023/04/11 04:09:42;;;;;;;18.58;3.55;;;;;;;-139.84;100.00;61778.28;5045332;28;20025;-74
2023/04/11 04:12:07;;;;;;;22.00;2.35;;;;;;;-139.84;100.00;61778.28;5043805;28;20043;-73
2023/04/11 04:14:33;;;;;;;11.52;1.88;;;;;;;-139.84;100.00;61778.28;5047319;28;20112;-74
2023/04/11 04:16:58;;;;;;;21.13;2.67;;;;;;;-139.84;100.00;61778.28;5031987;28;20028;-74
2023/04/11 04:19:25;;;;;;;16.67;2.80;;;;;;;-139.84;100.00;61778.28;5046085;28;20033;-75
2023/04/11 04:21:50;;;;;;;14.95;2.20;;;;;;;-139.84;100.00;61778.28;5030357;28;20092;-75
2023/04/11 04:24:16;;;;;;;18.60;4.47;;;;;;;-139.84;100.00;61778.28;5042371;28;20041;-75
2023/04/11 04:26:42;;;;;;;27.48;2.88;;;;;;;-139.84;100.00;61778.28;5047001;28;20040;-76
2023/04/11 04:29:09;;;;;;;16.05;2.70;;;;;;;-139.84;100.00;61778.28;5032079;28;20393;-75
2023/04/11 04:31:35;;;;;;;17.48;3.17;;;;;;;-139.84;100.00;61778.28;5045031;28;20025;-74
2023/04/11 04:34:09;;;;;;;13.38;2.88;;;;;;;-139.84;100.00;61778.28;5043965;28;20491;-74
2023/04/11 04:36:48;;;;;;;18.13;3.13;;;;;;;-139.84;100.00;61778.28;5046473;28;20025;-74
2023/04/11 04:39:18;;;;;;;16.45;2.72;;;;;;;-139.84;100.00;61778.28;5031269;28;20034;-73
2023/04/11 04:41:48;;;;;;;16.90;2.72;;;;;;;-139.84;100.00;61778.28;5029527;28;20481;-74
2023/04/11 04:44:17;;;;;;;18.33;2.80;;;;;;;-139.84;100.00;61778.28;5031148;28;20028;-75
2023/04/11 04:46:43;;;;;;;18.63;3.45;;;;;;;-139.84;100.00;61778.28;5043524;28;20100;-74
2023/04/11 04:49:09;;;;;;;22.35;2.63;;;;;;;-139.84;100.00;61778.28;5046806;28;20040;-74
2023/04/11 04:51:39;;;;;;;13.20;1.85;;;;;;;-139.84;100.00;61778.28;5033979;28;20033;-74
2023/04/11 04:54:04;;;;;;;27.95;3.50;;;;;;;-139.84;100.00;61778.28;5042573;28;20108;-74
2023/04/11 04:56:30;;;;;;;15.25;2.80;;;;;;;-139.84;100.00;61778.28;5047067;28;20552;-74
2023/04/11 04:58:56;;;;;;;14.00;2.10;;;;;;;-139.84;100.00;61778.28;5044849;28;20115;-74
2023/04/11 05:01:25;;;;;;;16.92;3.03;;;;;;;-139.84;100.00;61778.28;5046556;28;20542;-74
2023/04/11 05:03:58;;;;;;;19.88;3.25;;;;;;;-139.84;100.00;61778.28;5028684;28;20032;-73
2023/04/11 05:06:31;;;;;;;19.10;4.65;;;;;;;-139.84;100.00;61778.28;5043247;28;20041;-74
2023/04/11 05:08:58;;;;;;;23.75;4.38;;;;;;;-139.84;100.00;61778.28;5026911;28;20032;-73
2023/04/11 05:11:24;;;;;;;18.65;2.83;;;;;;;-139.84;100.00;61778.28;5042105;28;20382;-74
2023/04/11 05:13:50;;;;;;;19.40;3.55;;;;;;;-139.84;100.00;61778.28;5044575;28;20041;-74
2023/04/11 05:16:16;;;;;;;19.35;3.00;;;;;;;-139.84;100.00;61778.28;5041875;28;20370;-74
2023/04/11 05:18:44;;;;;;;22.23;2.60;;;;;;;-139.84;100.00;61778.28;5046800;28;20515;-74
2023/04/11 05:21:10;;;;;;;17.17;2.85;;;;;;;-139.84;100.00;61778.28;5041678;28;20025;-73
2023/04/11 05:23:36;;;;;;;14.87;2.53;;;;;;;-139.84;100.00;61778.28;5045967;28;20488;-74
2023/04/11 05:26:01;;;;;;;16.83;2.92;;;;;;;-139.84;100.00;61778.28;5043855;28;20320;-74
2023/04/11 05:28:27;;;;;;;22.30;4.25;;;;;;;-139.84;100.00;61778.28;5045994;28;20435;-73
2023/04/11 05:30:52;;;;;;;13.18;2.47;;;;;;;-139.84;100.00;61778.28;5044260;28;20025;-74
2023/04/11 05:33:18;;;;;;;22.65;3.47;;;;;;;-139.84;100.00;61778.28;5044693;28;20091;-74
2023/04/11 05:35:43;;;;;;;15.48;3.58;;;;;;;-139.84;100.00;61778.28;5044918;28;20044;-74
2023/04/11 05:38:08;;;;;;;26.95;3.53;;;;;;;-139.84;100.00;61778.28;5044063;28;20049;-74
2023/04/11 05:40:35;;;;;;;20.20;3.90;;;;;;;-139.84;100.00;61778.28;5043411;28;20044;-74
2023/04/11 05:43:01;;;;;;;20.95;2.50;;;;;;;-139.84;100.00;61778.28;5042426;28;20036;-74
2023/04/11 05:45:26;;;;;;;16.50;3.33;;;;;;;-139.84;100.00;61778.28;5043007;28;20029;-74
2023/04/11 05:47:53;;;;;;;30.58;4.65;;;;;;;-139.84;100.00;61778.28;5032589;28;20043;-74
2023/04/11 05:50:18;;;;;;;19.17;3.72;;;;;;;-139.84;100.00;61778.28;5044770;28;20131;-74
2023/04/11 05:52:43;;;;;;;18.70;3.30;;;;;;;-139.84;100.00;61778.28;5045264;28;20033;-73
2023/04/11 05:55:09;;;;;;;44.58;5.50;;;;;;;-139.84;100.00;61778.28;5022777;28;20055;-73
2023/04/11 05:57:35;;;;;;;18.33;3.57;;;;;;;-139.84;100.00;61778.28;5044312;28;21737;-74
2023/04/11 06:00:00;;;;;;;19.40;3.35;;;;;;;-139.84;100.00;61778.28;5045887;28;20864;-74
2023/04/11 06:02:27;;;;;;;25.92;3.13;;;;;;;-139.84;100.00;61778.28;5043461;28;20082;-74
2023/04/11 06:04:53;;;;;;;26.88;4.15;;;;;;;-139.84;100.00;61778.28;5041545;28;20118;-74
2023/04/11 06:07:20;;;;;;;28.13;3.72;;;;;;;-139.84;100.00;61778.28;5043317;28;20480;-74
2023/04/11 06:09:45;;;;;;;18.73;3.20;;;;;;;-139.84;100.00;61778.28;5042000;28;20045;-74
2023/04/11 06:12:11;;;;;;;26.65;3.00;;;;;;;-139.84;100.00;61778.28;5031696;28;20036;-74
2023/04/11 06:14:37;;;;;;;22.88;3.17;;;;;;;-139.84;100.00;61778.28;5041837;28;20029;-74
2023/04/11 06:17:02;;;;;;;17.23;4.10;;;;;;;-139.84;100.00;61778.28;5048597;28;20032;-74
2023/04/11 06:19:27;;;;;;;21.83;3.22;;;;;;;-139.84;100.00;61778.28;5044205;28;20055;-74
2023/04/11 06:21:53;;;;;;;33.07;5.10;;;;;;;-139.84;100.00;61778.28;5042340;28;20144;-74
2023/04/11 06:24:34;;;;;;;24.73;5.25;;;;;;;-139.84;100.00;61778.28;5043583;28;20087;-74
2023/04/11 06:26:59;;;;;;;24.95;3.42;;;;;;;-139.84;100.00;61778.28;5040650;28;20127;-74
2023/04/11 06:29:24;;;;;;;15.23;2.90;;;;;;;-139.84;100.00;61778.28;5043737;28;20479;-74
2023/04/11 06:31:50;;;;;;;22.55;3.28;;;;;;;-139.84;100.00;61778.28;5046579;28;20143;-74
2023/04/11 06:34:15;;;;;;;19.35;4.22;;;;;;;-139.84;100.00;61778.28;5044805;28;20029;-74
2023/04/11 06:36:41;;;;;;;26.38;3.70;;;;;;;-139.84;100.00;61778.28;5027937;28;20029;-74
2023/04/11 06:39:08;;;;;;;21.08;2.78;;;;;;;-139.84;100.00;61778.28;5027194;28;20444;-75
2023/04/11 06:41:35;;;;;;;18.70;3.30;;;;;;;-139.84;100.00;61778.28;5042577;28;20035;-74
2023/04/11 06:44:00;;;;;;;26.65;2.83;;;;;;;-139.84;100.00;61778.28;5044248;28;20111;-74
2023/04/11 06:46:26;;;;;;;15.60;3.10;;;;;;;-139.84;100.00;61778.28;5045699;28;20563;-74
2023/04/11 06:48:51;;;;;;;27.10;4.30;;;;;;;-139.84;100.00;61778.28;5042781;28;20031;-74
2023/04/11 06:51:16;;;;;;;27.40;4.88;;;;;;;-139.84;100.00;61778.28;5040423;28;20040;-74
2023/04/11 06:53:42;;;;;;;17.90;2.90;;;;;;;-139.84;100.00;61778.28;5041803;28;20099;-74
2023/04/11 06:56:08;;;;;;;27.20;4.45;;;;;;;-139.84;100.00;61778.28;5042094;28;20033;-74
2023/04/11 06:58:33;;;;;;;22.57;3.20;;;;;;;-139.84;100.00;61778.28;5043993;28;20032;-74
2023/04/11 07:00:59;;;;;;;24.30;2.70;;;;;;;-139.84;100.00;61778.28;5043493;28;20480;-74
2023/04/11 07:03:25;;;;;;;22.83;3.67;;;;;;;-139.84;100.00;61778.28;5043870;28;20031;-74
2023/04/11 07:05:50;;;;;;;29.83;4.00;;;;;;;-139.84;100.00;61778.28;5029094;28;20071;-74
2023/04/11 07:08:15;;;;;;;24.38;4.60;;;;;;;-139.84;100.00;61778.28;5039518;28;20033;-74
2023/04/11 07:10:41;;;;;;;23.70;3.00;;;;;;;-139.84;100.00;61778.28;5043360;28;20033;-74
2023/04/11 07:13:06;;;;;;;26.38;3.45;;;;;;;-139.84;100.00;61778.28;5045827;28;20376;-74
2023/04/11 07:15:31;;;;;;;15.90;2.70;;;;;;;-139.84;100.00;61778.28;5047650;28;20060;-74
2023/04/11 07:17:57;;;;;;;15.93;3.63;;;;;;;-139.84;100.00;61778.28;5031313;28;20112;-74
2023/04/11 07:20:22;;;;;;;18.07;3.10;;;;;;;-139.84;100.00;61778.28;5028893;28;20114;-75
2023/04/11 07:22:48;;;;;;;14.67;3.10;;;;;;;-139.84;100.00;61778.28;5042784;28;20120;-75
2023/04/11 07:25:13;;;;;;;13.83;3.30;;;;;;;-139.84;100.00;61778.28;5020728;28;20064;-74
2023/04/11 07:27:42;;;;;;;17.10;4.27;;;;;;;-139.84;100.00;61778.28;5048007;28;20033;-74
2023/04/11 07:30:08;;;;;;;19.75;2.65;;;;;;;-139.84;100.00;61778.28;5042384;28;20056;-75
2023/04/11 07:32:33;;;;;;;16.97;3.00;;;;;;;-139.84;100.00;61778.28;5044782;28;20063;-74
2023/04/11 07:34:59;;;;;;;24.45;3.00;;;;;;;-139.84;100.00;61778.28;5041382;28;20507;-74
2023/04/11 07:37:25;;;;;;;13.60;2.67;;;;;;;-139.84;100.00;61778.28;5041107;28;20021;-74
2023/04/11 07:39:51;;;;;;;26.40;3.47;;;;;;;-139.84;100.00;61778.28;5023829;28;20048;-74
2023/04/11 07:42:16;;;;;;;18.70;3.40;;;;;;;-139.84;100.00;61778.28;5043476;28;20028;-74
2023/04/11 07:44:42;;;;;;;17.67;4.00;;;;;;;-139.84;100.00;61778.28;5040418;28;20033;-74
2023/04/11 07:47:07;;;;;;;20.13;3.13;;;;;;;-139.84;100.00;61778.28;5054888;28;20500;-74
2023/04/11 07:49:32;;;;;;;18.10;3.07;;;;;;;-139.84;100.00;61778.28;5045543;28;20121;-73
2023/04/11 07:51:58;;;;;;;24.50;3.78;;;;;;;-139.84;100.00;61778.28;5051265;28;20037;-75
2023/04/11 07:54:24;;;;;;;17.92;3.60;;;;;;;-139.84;100.00;61778.28;5049924;28;20040;-74
2023/04/11 07:56:49;;;;;;;22.17;4.45;;;;;;;-139.84;100.00;61778.28;5042513;28;20497;-75
2023/04/11 07:59:15;;;;;;;20.92;3.72;;;;;;;-139.84;100.00;61778.28;5044019;28;20151;-74
2023/04/11 08:01:41;;;;;;;17.77;3.72;;;;;;;-139.84;100.00;61778.28;5028920;28;20587;-74
2023/04/11 08:04:06;;;;;;;25.20;3.50;;;;;;;-139.84;100.00;61778.28;5047630;28;20057;-75
2023/04/11 08:06:32;;;;;;;19.40;3.47;;;;;;;-139.84;100.00;61778.28;5031121;28;20100;-74
2023/04/11 08:08:57;;;;;;;20.25;4.00;;;;;;;-139.84;100.00;61778.28;5031986;28;20029;-74
2023/04/11 08:11:23;;;;;;;14.57;3.03;;;;;;;-139.84;100.00;61778.28;5029692;28;20088;-74
2023/04/11 08:13:48;;;;;;;13.97;3.47;;;;;;;-139.84;100.00;61778.28;5045372;28;20078;-74
2023/04/11 08:16:14;;;;;;;19.07;3.30;;;;;;;-139.84;100.00;61778.28;5044072;28;20021;-73
2023/04/11 08:18:44;;;;;;;20.25;2.92;;;;;;;-139.84;100.00;61778.28;5022438;28;20017;-75
2023/04/11 08:21:10;;;;;;;15.20;2.53;;;;;;;-139.84;100.00;61778.28;5034888;28;20472;-74
2023/04/11 08:23:36;;;;;;;18.73;3.83;;;;;;;-139.84;100.00;61778.28;5031049;28;20102;-74
2023/04/11 08:26:01;;;;;;;24.43;4.20;;;;;;;-139.84;100.00;61778.28;5046875;28;20476;-74
2023/04/11 08:28:27;;;;;;;19.83;3.67;;;;;;;-139.84;100.00;61778.28;5047611;28;20028;-74
2023/04/11 08:30:57;;;;;;;17.20;3.22;;;;;;;-139.84;100.00;61778.28;5046896;28;20032;-74
2023/04/11 08:33:26;;;;;;;19.25;3.30;;;;;;;-139.84;100.00;61778.28;5048452;28;20027;-74
2023/04/11 08:35:52;;;;;;;18.50;3.33;;;;;;;-139.84;100.00;61778.28;5045603;28;20150;-74
2023/04/11 08:38:17;;;;;;;16.10;3.20;;;;;;;-139.84;100.00;61778.28;5046729;28;20104;-75
2023/04/11 08:40:43;;;;;;;19.27;3.13;;;;;;;-139.84;100.00;61778.28;5045951;28;20479;-74
2023/04/11 08:43:10;;;;;;;14.15;2.95;;;;;;;-139.84;100.00;61778.28;5043603;28;20028;-75
2023/04/11 08:45:40;;;;;;;19.60;3.42;;;;;;;-139.84;100.00;61778.28;5045835;28;20032;-74
2023/04/11 08:48:06;;;;;;;19.27;2.75;;;;;;;-139.84;100.00;61778.28;5041441;28;20036;-75
2023/04/11 08:50:34;;;;;;;17.98;2.65;;;;;;;-139.84;100.00;61778.28;5040655;28;20095;-75
2023/04/11 08:53:03;;;;;;;17.52;2.83;;;;;;;-139.84;100.00;61778.28;5045570;28;20032;-75
2023/04/11 08:55:29;;;;;;;19.50;3.78;;;;;;;-139.84;100.00;61778.28;5050308;28;20043;-75
2023/04/11 08:57:58;;;;;;;13.98;2.80;;;;;;;-139.84;100.00;61778.28;5046233;28;20052;-75
2023/04/11 09:00:25;;;;;;;19.45;2.72;;;;;;;-139.84;100.00;61778.28;5049591;28;20082;-75
2023/04/11 09:03:02;;;;;;;12.00;2.50;;;;;;;-139.84;100.00;61778.28;5045570;28;20029;-74
2023/04/11 09:05:28;;;;;;;12.67;2.77;;;;;;;-139.84;100.00;61778.28;5043870;28;20518;-74
2023/04/11 09:07:54;;;;;;;12.20;3.05;;;;;;;-139.84;100.00;61778.28;5048669;28;20036;-74
2023/04/11 09:10:20;;;;;;;17.33;2.83;;;;;;;-139.84;100.00;61778.28;5053550;28;20037;-75
2023/04/11 09:12:46;;;;;;;15.20;2.30;;;;;;;-139.84;100.00;61778.28;5047458;28;20029;-74
2023/04/11 09:15:19;;;;;;;13.13;2.33;;;;;;;-139.84;100.00;61778.28;5045403;28;20143;-74
2023/04/11 09:17:44;;;;;;;15.90;3.10;;;;;;;-139.84;100.00;61778.28;5049271;28;20045;-74
2023/04/11 09:20:17;;;;;;;16.13;2.30;;;;;;;-139.84;100.00;61778.28;5050289;28;20392;-75
2023/04/11 09:22:42;;;;;;;11.15;2.45;;;;;;;-139.84;100.00;61778.28;5049145;28;20104;-74
2023/04/11 09:25:08;;;;;;;18.00;2.43;;;;;;;-139.84;100.00;61778.28;5049186;28;20025;-75
2023/04/11 09:27:34;;;;;;;19.07;2.73;;;;;;;-139.84;100.00;61778.28;5032070;28;20063;-74
2023/04/11 09:30:01;;;;;;;9.13;1.70;;;;;;;-139.84;100.00;61778.28;5048762;28;20082;-75
2023/04/11 09:32:33;;;;;;;11.60;2.60;;;;;;;-139.84;100.00;61778.28;5047349;28;20079;-74
2023/04/11 09:35:12;;;;;;;14.43;2.53;;;;;;;-139.84;100.00;61778.28;5043781;28;20024;-75
2023/04/11 09:37:43;;;;;;;11.55;2.88;;;;;;;-139.84;100.00;61778.28;5031570;28;20036;-74
2023/04/11 09:40:10;;;;;;;10.60;2.70;;;;;;;-139.84;100.00;61778.28;5032719;28;20029;-69
2023/04/11 09:42:35;;;;;;;15.02;2.20;;;;;;;-139.84;100.00;61778.28;5044980;28;20047;-70
2023/04/11 09:45:01;;;;;;;9.23;2.27;;;;;;;-139.84;100.00;61778.28;5036324;28;20040;-70
2023/04/11 09:47:31;;;;;;;11.77;2.20;;;;;;;-139.84;100.00;61778.28;5032705;28;20025;-70
2023/04/11 09:49:58;;;;;;;13.50;2.95;;;;;;;-139.84;100.00;61778.28;5039446;28;20375;-69
2023/04/11 09:52:25;;;;;;;;;;;;;;;-139.84;100.00;61778.28;5036175;28;20029;-70
2023/04/11 09:54:51;;;;;;;19.83;2.65;;;;;;;-139.84;100.00;61778.28;5041330;28;19971;-69
2023/04/11 09:57:21;;;;;;;10.10;1.85;;;;;;;-139.84;100.00;61778.28;5046496;28;20033;-69
2023/04/11 09:59:47;;;;;;;21.33;3.38;;;;;;;-139.84;100.00;61778.28;5043594;28;20370;-70
2023/04/11 10:02:13;;;;;;;17.67;2.30;;;;;;;-139.84;100.00;61778.28;5043216;28;20021;-69
2023/04/11 10:04:39;;;;;;;11.83;2.60;;;;;;;-139.84;100.00;61778.28;5028851;28;20053;-69
2023/04/11 10:07:12;;;;;;;7.55;2.35;;;;;;;-139.84;100.00;61778.28;5040948;28;20024;-69
2023/04/11 10:09:41;;;;;;;15.52;3.00;;;;;;;-139.84;100.00;61778.28;5042843;28;20112;-70
2023/04/11 10:12:06;;;;;;;12.77;2.60;;;;;;;-139.84;100.00;61778.28;5044443;28;20504;-70
2023/04/11 10:14:37;;;;;;;9.87;2.03;;;;;;;-139.84;100.00;61778.28;5045541;28;20074;-69
2023/04/11 10:17:15;;;;;;;25.63;4.15;;;;;;;-139.84;100.00;61778.28;5047532;28;20036;-69
2023/04/11 10:19:41;;;;;;;14.65;2.53;;;;;;;-139.84;100.00;61778.28;5047868;28;20182;-69
2023/04/11 10:22:07;;;;;;;15.45;2.08;;;;;;;-139.84;100.00;61778.28;5028780;28;20025;-69
2023/04/11 10:24:32;;;;;;;12.27;2.00;;;;;;;-139.84;100.00;61778.28;5034600;28;20507;-69
2023/04/11 10:27:02;;;;;;;17.57;2.07;;;;;;;-139.84;100.00;61778.28;5045953;28;20103;-69
2023/04/11 10:29:27;;;;;;;14.15;2.90;;;;;;;-139.84;100.00;61778.28;5033903;28;20029;-69
2023/04/11 10:32:15;;;;;;;13.03;2.77;;;;;;;-139.84;100.00;61778.28;5044196;28;20036;-69
2023/04/11 10:34:49;;;;;;;14.68;2.17;;;;;;;-139.84;100.00;61778.28;5050219;28;20032;-69
2023/04/11 10:37:16;;;;;;;14.68;2.92;;;;;;;-139.84;100.00;61778.28;5040039;28;20349;-69
2023/04/11 10:39:50;;;;;;;16.45;2.42;;;;;;;-139.84;100.00;61778.28;5044834;28;20091;-70
2023/04/11 10:42:36;;;;;;;20.58;3.10;;;;;;;-139.84;100.00;61778.28;5044862;28;20044;-69
2023/04/11 10:45:18;;;;;;;15.23;2.70;;;;;;;-139.84;100.00;61778.28;5030367;28;20041;-69
2023/04/11 10:48:06;;;;;;;13.38;2.33;;;;;;;-139.84;100.00;61778.28;5047424;28;20389;-69
2023/04/11 10:50:36;;;;;;;19.00;4.00;;;;;;;-139.84;100.00;61778.28;5039901;28;20017;-70
2023/04/11 10:53:05;;;;;;;18.38;2.58;;;;;;;-139.84;100.00;61778.28;5031788;28;20068;-69
2023/04/11 10:55:42;;;;;;;8.60;1.98;;;;;;;-139.84;100.00;61778.28;5046795;28;20329;-70
2023/04/11 10:58:09;;;;;;;;;;;;;;;-139.84;100.00;61778.28;5044599;28;20144;-69
2023/04/11 11:00:49;;;;;;;16.52;2.45;;;;;;;-139.84;100.00;61778.28;5046146;28;19919;-69